Time;durP1;ratioP1;P1;durP2;ratioP2;P2;SDS_P1;SDS_P2;PMS_P1;PMS_P2;Temp;Humidity;BMP_temperature;BMP_pressure;BME280_temperature;BME280_humidity;BME280_pressure;Samples;Min_cycle;Max_cycle;Signal;HPM_P1;HPM_P2
2020/12/19 00:00:33;;;;;;;77.90;27.67;;;3.40;99.90;;;;;;5149588;28;20196;-68
2020/12/19 00:03:06;;;;;;;75.47;27.67;;;3.50;99.90;;;;;;5185236;28;20242;-70
2020/12/19 00:05:37;;;;;;;77.20;29.90;;;3.50;99.90;;;;;;5187795;28;20558;-70
2020/12/19 00:08:08;;;;;;;79.67;29.17;;;3.50;99.90;;;;;;5187348;28;20191;-67
2020/12/19 00:10:40;;;;;;;75.40;26.60;;;3.50;99.90;;;;;;5187531;28;20210;-69
2020/12/19 00:13:12;;;;;;;73.27;26.90;;;3.40;99.90;;;;;;5187539;28;20211;-69
2020/12/19 00:15:43;;;;;;;72.13;28.10;;;3.40;99.90;;;;;;5186923;28;20191;-70
2020/12/19 00:18:15;;;;;;;72.77;28.53;;;3.50;99.90;;;;;;5187587;28;20720;-71
2020/12/19 00:20:46;;;;;;;70.93;27.23;;;3.40;99.90;;;;;;5187401;28;20202;-67
2020/12/19 00:23:19;;;;;;;74.50;27.30;;;3.40;99.90;;;;;;5187321;28;20661;-68
2020/12/19 00:25:50;;;;;;;73.17;26.90;;;3.40;99.90;;;;;;5186830;28;20199;-69
2020/12/19 00:28:21;;;;;;;69.50;28.07;;;3.40;99.90;;;;;;5187668;28;20206;-67
2020/12/19 00:30:54;;;;;;;64.07;26.37;;;3.40;99.90;;;;;;5187340;28;20198;-68
2020/12/19 00:33:26;;;;;;;71.37;28.07;;;3.30;99.90;;;;;;5187142;28;20218;-69
2020/12/19 00:35:57;;;;;;;64.83;26.17;;;3.20;99.90;;;;;;5187657;28;20206;-71
2020/12/19 00:38:29;;;;;;;66.43;26.83;;;3.20;99.90;;;;;;5187480;28;20202;-68
2020/12/19 00:41:02;;;;;;;76.47;29.07;;;3.20;99.90;;;;;;5186942;28;20202;-68
2020/12/19 00:43:35;;;;;;;70.57;27.67;;;3.20;99.90;;;;;;5186781;28;20206;-70
2020/12/19 00:46:13;;;;;;;68.03;26.13;;;3.10;99.90;;;;;;5186406;28;20201;-70
2020/12/19 00:48:45;;;;;;;68.53;26.60;;;3.10;99.90;;;;;;5186607;28;20191;-69
2020/12/19 00:51:21;;;;;;;63.10;25.77;;;3.10;99.90;;;;;;5186281;28;20198;-70
2020/12/19 00:53:53;;;;;;;67.67;26.27;;;3.00;99.90;;;;;;5186592;28;20214;-70
2020/12/19 00:56:26;;;;;;;57.00;24.80;;;3.00;99.90;;;;;;5186694;28;20298;-70
2020/12/19 00:58:58;;;;;;;64.30;26.63;;;3.00;99.90;;;;;;5187530;28;20203;-69
2020/12/19 01:01:29;;;;;;;71.60;28.40;;;3.00;99.90;;;;;;5187574;28;20729;-70
2020/12/19 01:04:01;;;;;;;60.67;26.33;;;3.00;99.90;;;;;;5186581;28;20195;-69
2020/12/19 01:06:32;;;;;;;74.27;27.87;;;3.00;99.90;;;;;;5186699;28;20233;-68
2020/12/19 01:09:05;;;;;;;61.40;26.30;;;2.90;99.90;;;;;;5187020;28;20561;-70
2020/12/19 01:11:38;;;;;;;68.53;28.47;;;2.90;99.90;;;;;;5186637;28;20280;-73
2020/12/19 01:14:09;;;;;;;66.70;26.17;;;2.90;99.90;;;;;;5186340;28;20226;-69
2020/12/19 01:16:41;;;;;;;66.47;25.50;;;2.90;99.90;;;;;;5169222;28;20204;-70
2020/12/19 01:19:12;;;;;;;64.50;25.17;;;2.90;99.90;;;;;;5186428;28;20209;-70
2020/12/19 01:21:44;;;;;;;65.73;25.73;;;2.90;99.90;;;;;;5186459;28;20207;-70
2020/12/19 01:24:15;;;;;;;62.87;25.37;;;2.90;99.90;;;;;;5186930;28;20195;-69
2020/12/19 01:26:50;;;;;;;70.50;27.80;;;2.90;99.90;;;;;;5186187;28;20195;-69
2020/12/19 01:29:22;;;;;;;72.80;27.60;;;2.80;99.90;;;;;;5186214;28;20210;-70
2020/12/19 01:31:53;;;;;;;80.23;32.07;;;2.80;99.90;;;;;;5186314;28;20206;-68
2020/12/19 01:34:25;;;;;;;85.47;32.13;;;2.80;99.90;;;;;;5186291;28;20229;-69
2020/12/19 01:36:56;;;;;;;80.53;31.10;;;2.80;99.90;;;;;;5186136;28;20201;-70
2020/12/19 01:39:28;;;;;;;74.77;29.40;;;2.70;99.90;;;;;;5186688;28;20195;-68
2020/12/19 01:41:59;;;;;;;71.73;27.93;;;2.70;99.90;;;;;;5169187;28;20195;-70
2020/12/19 01:44:30;;;;;;;74.27;28.17;;;2.70;99.90;;;;;;5188363;28;20211;-73
2020/12/19 01:47:08;;;;;;;77.57;28.63;;;2.70;99.90;;;;;;5186724;28;20199;-69
2020/12/19 01:49:39;;;;;;;78.30;29.50;;;2.70;99.90;;;;;;5186333;28;20187;-69
2020/12/19 01:52:11;;;;;;;78.93;30.03;;;2.70;99.90;;;;;;5185934;28;20198;-68
2020/12/19 01:54:42;;;;;;;71.67;28.00;;;2.70;99.90;;;;;;5186100;28;20229;-71
2020/12/19 01:57:18;;;;;;;76.77;29.00;;;2.70;99.90;;;;;;5186256;28;20195;-68
2020/12/19 01:59:50;;;;;;;69.33;27.27;;;2.70;99.90;;;;;;5186039;28;20366;-69
2020/12/19 02:02:24;;;;;;;72.47;28.00;;;2.70;99.90;;;;;;5186246;28;20598;-70
2020/12/19 02:04:55;;;;;;;72.77;28.17;;;2.70;99.90;;;;;;5190177;28;20195;-69
2020/12/19 02:07:27;;;;;;;79.80;27.93;;;2.70;99.90;;;;;;5173828;28;20187;-72
2020/12/19 02:10:00;;;;;;;71.40;27.90;;;2.70;99.90;;;;;;5191430;28;20199;-71
2020/12/19 02:12:31;;;;;;;79.47;28.47;;;2.70;99.90;;;;;;5190991;28;20596;-72
2020/12/19 02:15:03;;;;;;;77.73;27.47;;;2.70;99.90;;;;;;5191489;28;20615;-69
2020/12/19 02:17:34;;;;;;;71.00;28.27;;;2.70;99.90;;;;;;5191284;28;20198;-71
2020/12/19 02:20:05;;;;;;;78.73;28.63;;;2.70;99.90;;;;;;5190153;28;20210;-70
2020/12/19 02:22:37;;;;;;;80.93;29.43;;;2.70;99.90;;;;;;5172025;28;20195;-68
2020/12/19 02:25:09;;;;;;;77.13;29.50;;;2.70;99.90;;;;;;5172011;28;20206;-70
2020/12/19 02:27:40;;;;;;;76.73;28.13;;;2.70;99.90;;;;;;5190222;28;20214;-68
2020/12/19 02:30:12;;;;;;;76.30;29.20;;;2.70;99.90;;;;;;5189518;28;20206;-69
2020/12/19 02:32:44;;;;;;;85.03;32.03;;;2.70;99.90;;;;;;5189813;28;20195;-69
2020/12/19 02:35:16;;;;;;;78.97;29.27;;;2.70;99.90;;;;;;5189172;28;20207;-69
2020/12/19 02:37:47;;;;;;;75.53;28.70;;;2.70;99.90;;;;;;5189174;28;20194;-71
2020/12/19 02:40:19;;;;;;;84.20;31.80;;;2.70;99.90;;;;;;5189426;28;20194;-69
2020/12/19 02:42:50;;;;;;;85.10;33.87;;;2.70;99.90;;;;;;5155742;28;20198;-69
2020/12/19 02:45:22;;;;;;;90.07;33.33;;;2.70;99.90;;;;;;5189116;28;20253;-69
2020/12/19 02:47:53;;;;;;;83.90;31.77;;;2.70;99.90;;;;;;5188531;28;20203;-69
2020/12/19 02:50:26;;;;;;;94.70;31.90;;;2.70;99.90;;;;;;5188770;28;20242;-69
2020/12/19 02:52:57;;;;;;;88.17;32.97;;;2.70;99.90;;;;;;5189009;28;20219;-70
2020/12/19 02:55:28;;;;;;;80.43;30.60;;;2.70;99.90;;;;;;5188347;28;20214;-69
2020/12/19 02:58:00;;;;;;;85.53;32.87;;;2.70;99.90;;;;;;5171236;28;20195;-70
2020/12/19 03:00:31;;;;;;;83.40;31.20;;;2.70;99.90;;;;;;5106213;29;20613;-69
2020/12/19 03:03:03;;;;;;;85.07;31.43;;;2.70;99.90;;;;;;5106019;29;20245;-70
2020/12/19 03:05:34;;;;;;;76.93;30.77;;;2.60;99.90;;;;;;5090990;29;20198;-69
2020/12/19 03:08:06;;;;;;;82.57;31.07;;;2.60;99.90;;;;;;5107591;29;20221;-69
2020/12/19 03:10:37;;;;;;;80.20;30.17;;;2.60;99.90;;;;;;5106451;29;20193;-70
2020/12/19 03:16:54;;;;;;;77.50;29.63;;;2.60;99.90;;;;;;5110650;29;20211;-71
2020/12/19 03:19:25;;;;;;;82.90;31.20;;;2.60;99.90;;;;;;5106743;29;20288;-70
2020/12/19 03:21:56;;;;;;;81.73;30.73;;;2.50;99.90;;;;;;5106223;29;20214;-69
2020/12/19 03:24:28;;;;;;;81.40;30.20;;;2.60;99.90;;;;;;5127950;28;20211;-69
2020/12/19 03:26:59;;;;;;;81.17;30.77;;;2.50;99.90;;;;;;5188672;28;20198;-70
2020/12/19 03:33:16;;;;;;;84.27;31.57;;;2.60;99.90;;;;;;5190076;28;20277;-68
2020/12/19 03:35:48;;;;;;;90.20;31.80;;;2.60;99.90;;;;;;5170943;28;20191;-71
2020/12/19 03:38:19;;;;;;;94.67;33.47;;;2.60;99.90;;;;;;5188440;28;20195;-69
2020/12/19 03:40:50;;;;;;;91.70;32.13;;;2.60;99.90;;;;;;5188128;28;20555;-71
2020/12/19 03:43:22;;;;;;;89.27;33.43;;;2.60;99.90;;;;;;5187745;28;20199;-69
2020/12/19 03:45:54;;;;;;;81.57;33.33;;;2.60;99.90;;;;;;5190883;28;20211;-69
2020/12/19 03:48:26;;;;;;;82.73;30.73;;;2.60;99.90;;;;;;5170796;28;20191;-70
2020/12/19 03:50:57;;;;;;;84.17;31.50;;;2.60;99.90;;;;;;5187875;28;20199;-69
2020/12/19 03:53:29;;;;;;;81.20;31.63;;;2.50;99.90;;;;;;5187597;28;20225;-69
2020/12/19 03:56:00;;;;;;;80.23;30.63;;;2.50;99.90;;;;;;5187790;28;20191;-69
2020/12/19 03:58:31;;;;;;;79.47;30.73;;;2.50;99.90;;;;;;5187811;28;20206;-69
2020/12/19 04:01:03;;;;;;;89.43;33.63;;;2.50;99.90;;;;;;5187043;28;20209;-68
2020/12/19 04:03:34;;;;;;;81.43;31.07;;;2.40;99.90;;;;;;5189815;28;20197;-70
2020/12/19 04:06:06;;;;;;;75.97;29.43;;;2.40;99.90;;;;;;5170277;28;20191;-68
2020/12/19 04:08:37;;;;;;;76.10;29.23;;;2.40;99.90;;;;;;5186994;28;20211;-69
2020/12/19 04:11:09;;;;;;;76.13;31.10;;;2.30;99.90;;;;;;5187234;28;20217;-70
2020/12/19 04:13:40;;;;;;;74.20;28.80;;;2.30;99.90;;;;;;5187444;28;20230;-69
2020/12/19 04:16:11;;;;;;;69.93;28.93;;;2.30;99.90;;;;;;5187525;28;20541;-70
2020/12/19 04:18:43;;;;;;;77.03;28.93;;;2.20;99.90;;;;;;5186755;28;20207;-70
2020/12/19 04:21:14;;;;;;;75.67;29.13;;;2.20;99.90;;;;;;5187108;28;20649;-68
2020/12/19 04:23:46;;;;;;;74.90;29.03;;;2.20;99.90;;;;;;5187385;28;20265;-68
2020/12/19 04:26:17;;;;;;;79.53;31.17;;;2.20;99.90;;;;;;5186036;28;20191;-68
2020/12/19 04:28:48;;;;;;;75.07;29.30;;;2.20;99.90;;;;;;5186900;28;20198;-69
2020/12/19 04:31:20;;;;;;;80.40;29.90;;;2.20;99.90;;;;;;5187095;28;20201;-71
2020/12/19 04:33:51;;;;;;;78.07;29.70;;;2.20;99.90;;;;;;5186726;28;20222;-69
2020/12/19 04:36:23;;;;;;;76.97;28.83;;;2.20;99.90;;;;;;5187143;28;20195;-70
2020/12/19 04:38:54;;;;;;;72.37;29.53;;;2.20;99.90;;;;;;5187225;28;20630;-69
2020/12/19 04:41:26;;;;;;;78.60;28.73;;;2.20;99.90;;;;;;5187180;28;20549;-68
2020/12/19 04:44:00;;;;;;;74.60;27.97;;;2.20;99.90;;;;;;5187119;28;20702;-68
2020/12/19 04:46:32;;;;;;;77.30;28.67;;;2.20;99.90;;;;;;5187061;28;20558;-70
2020/12/19 04:49:05;;;;;;;75.80;28.07;;;2.20;99.90;;;;;;5187016;28;20199;-70
2020/12/19 04:51:38;;;;;;;75.80;27.27;;;2.10;99.90;;;;;;5186564;28;20191;-69
2020/12/19 04:54:09;;;;;;;70.40;26.43;;;2.20;99.90;;;;;;5186954;28;20602;-69
2020/12/19 04:56:41;;;;;;;66.30;26.73;;;2.10;99.90;;;;;;5187140;28;20199;-71
2020/12/19 04:59:12;;;;;;;65.90;25.57;;;2.10;99.90;;;;;;5187214;28;20214;-69
2020/12/19 05:01:43;;;;;;;66.97;24.90;;;2.10;99.90;;;;;;5186488;28;20231;-69
2020/12/19 05:04:15;;;;;;;69.57;25.30;;;2.00;99.90;;;;;;5186665;28;20228;-69
2020/12/19 05:06:47;;;;;;;74.77;27.40;;;2.00;99.90;;;;;;5186720;28;20569;-70
2020/12/19 05:09:19;;;;;;;67.83;26.97;;;2.00;99.90;;;;;;5186996;28;20614;-70
2020/12/19 05:11:51;;;;;;;63.77;24.37;;;1.90;99.90;;;;;;5186579;28;20191;-68
2020/12/19 05:14:23;;;;;;;70.27;25.37;;;1.90;99.90;;;;;;5186637;28;20227;-70
2020/12/19 05:16:55;;;;;;;63.27;25.20;;;1.80;99.90;;;;;;5186673;28;20202;-68
2020/12/19 05:19:30;;;;;;;65.37;24.50;;;1.90;99.90;;;;;;5187477;28;20201;-70
2020/12/19 05:22:03;;;;;;;78.60;26.47;;;1.90;99.90;;;;;;5187556;28;20187;-69
2020/12/19 05:24:34;;;;;;;61.83;24.27;;;1.80;99.90;;;;;;5186559;28;20572;-70
2020/12/19 05:27:09;;;;;;;65.80;25.63;;;1.80;99.90;;;;;;5187110;28;20195;-69
2020/12/19 05:29:40;;;;;;;65.73;24.67;;;1.80;99.90;;;;;;5186485;28;20205;-68
2020/12/19 05:32:13;;;;;;;68.07;24.67;;;1.80;99.90;;;;;;5186324;28;20195;-69
2020/12/19 05:34:48;;;;;;;63.07;24.37;;;1.80;99.90;;;;;;5188043;28;20310;-70
2020/12/19 05:37:20;;;;;;;67.87;24.60;;;1.70;99.90;;;;;;5186451;28;20604;-69
2020/12/19 05:39:52;;;;;;;64.40;23.87;;;1.70;99.90;;;;;;5190073;28;20562;-68
2020/12/19 05:42:24;;;;;;;61.63;23.77;;;1.70;99.90;;;;;;5190009;28;20246;-69
2020/12/19 05:44:55;;;;;;;72.80;25.67;;;1.70;99.90;;;;;;5189948;28;20191;-68
2020/12/19 05:47:27;;;;;;;67.47;25.73;;;1.80;99.90;;;;;;5190447;28;20198;-70
2020/12/19 05:49:58;;;;;;;74.97;27.40;;;1.80;99.90;;;;;;5190062;28;20649;-69
2020/12/19 05:52:32;;;;;;;72.83;26.87;;;1.70;99.90;;;;;;5190239;28;20195;-69
2020/12/19 05:55:12;;;;;;;70.10;25.40;;;1.80;99.90;;;;;;5190134;28;20241;-69
2020/12/19 05:57:44;;;;;;;75.57;26.20;;;1.80;99.90;;;;;;5190081;28;20195;-69
2020/12/19 06:00:17;;;;;;;85.07;26.60;;;1.80;99.90;;;;;;5189632;28;20221;-70
2020/12/19 06:02:50;;;;;;;82.13;27.07;;;1.90;99.90;;;;;;5189580;28;20241;-69
2020/12/19 06:05:23;;;;;;;77.07;25.70;;;1.90;99.90;;;;;;5190072;28;20195;-68
2020/12/19 06:07:55;;;;;;;81.57;26.23;;;1.90;99.90;;;;;;5189627;28;20191;-69
2020/12/19 06:10:27;;;;;;;79.00;24.80;;;1.90;99.90;;;;;;5173031;28;20286;-70
2020/12/19 06:13:10;;;;;;;73.13;24.90;;;1.90;99.90;;;;;;5190303;28;20566;-69
2020/12/19 06:16:01;;;;;;;70.77;24.07;;;1.90;99.90;;;;;;5190291;28;20198;-67
2020/12/19 06:18:47;;;;;;;73.40;24.97;;;1.90;99.90;;;;;;5191833;28;20215;-69
2020/12/19 06:21:20;;;;;;;68.57;24.07;;;1.90;99.90;;;;;;5172930;28;20195;-69
2020/12/19 06:23:52;;;;;;;74.97;24.13;;;1.90;99.90;;;;;;5191066;28;20195;-69
2020/12/19 06:26:35;;;;;;;68.57;23.47;;;1.90;99.90;;;;;;5192477;28;20546;-69
2020/12/19 06:33:16;;;;;;;71.43;23.53;;;1.80;99.90;;;;;;5191391;28;20198;-71
2020/12/19 06:35:49;;;;;;;69.43;24.30;;;1.90;99.90;;;;;;5174302;28;20211;-68
2020/12/19 06:38:40;;;;;;;58.87;22.30;;;1.80;99.90;;;;;;5189582;28;20199;-70
2020/12/19 06:41:43;;;;;;;63.43;22.63;;;1.80;99.90;;;;;;5189663;28;20206;-68
2020/12/19 06:44:26;;;;;;;65.17;23.57;;;1.80;99.90;;;;;;5189537;28;20187;-68
2020/12/19 06:47:00;;;;;;;63.73;22.80;;;1.80;99.90;;;;;;5189401;28;20553;-70
2020/12/19 06:49:34;;;;;;;63.60;23.23;;;1.80;99.90;;;;;;5188181;28;20190;-69
2020/12/19 06:52:12;;;;;;;66.17;22.23;;;1.80;99.90;;;;;;5189271;28;20191;-68
2020/12/19 06:54:45;;;;;;;66.83;24.07;;;1.80;99.90;;;;;;5189011;28;20245;-69
2020/12/19 06:57:24;;;;;;;60.43;22.73;;;1.90;99.90;;;;;;5188788;28;20202;-69
2020/12/19 07:00:16;;;;;;;68.23;24.67;;;1.80;99.90;;;;;;5189195;28;20202;-70
2020/12/19 07:02:49;;;;;;;71.63;24.17;;;1.90;99.90;;;;;;5193525;28;20334;-69
2020/12/19 07:05:23;;;;;;;78.77;25.77;;;1.90;99.90;;;;;;5193790;28;20255;-73
2020/12/19 07:08:21;;;;;;;65.73;23.57;;;1.90;99.90;;;;;;5193041;28;20199;-71
2020/12/19 07:10:52;;;;;;;65.70;24.10;;;1.90;99.90;;;;;;5190219;28;20202;-70
2020/12/19 07:13:24;;;;;;;69.70;23.87;;;1.90;99.90;;;;;;5188342;28;20226;-69
2020/12/19 07:15:55;;;;;;;82.17;25.47;;;1.90;99.90;;;;;;5170975;28;20531;-70
2020/12/19 07:18:36;;;;;;;72.30;25.23;;;1.90;99.90;;;;;;5188348;28;20214;-69
2020/12/19 07:21:09;;;;;;;79.80;26.33;;;1.90;99.90;;;;;;5188650;28;20556;-70
2020/12/19 07:23:41;;;;;;;73.23;26.37;;;1.90;99.90;;;;;;5188183;28;20199;-68
2020/12/19 07:26:14;;;;;;;86.83;26.07;;;1.90;99.90;;;;;;5188626;28;20589;-69
2020/12/19 07:28:47;;;;;;;73.70;25.33;;;1.90;99.90;;;;;;5170987;28;20195;-71
2020/12/19 07:31:19;;;;;;;78.70;25.93;;;2.00;99.90;;;;;;5188108;28;20198;-70
2020/12/19 07:33:50;;;;;;;83.87;26.10;;;1.90;99.90;;;;;;5188017;28;20226;-69
2020/12/19 07:36:25;;;;;;;82.80;26.00;;;2.00;99.90;;;;;;5188070;28;20203;-70
2020/12/19 07:39:12;;;;;;;82.57;25.30;;;2.00;99.90;;;;;;5188204;28;20198;-69
2020/12/19 07:41:47;;;;;;;76.17;25.10;;;2.00;99.90;;;;;;5187911;28;20199;-70
2020/12/19 07:48:15;;;;;;;71.13;23.60;;;2.00;99.90;;;;;;5187967;28;20179;-68
2020/12/19 07:50:46;;;;;;;78.07;26.17;;;2.00;99.90;;;;;;5187587;28;20199;-69
2020/12/19 07:53:18;;;;;;;78.87;24.30;;;2.10;99.90;;;;;;5187919;28;20226;-69
2020/12/19 07:55:51;;;;;;;77.97;24.60;;;2.10;99.90;;;;;;5187619;28;20199;-70
2020/12/19 07:58:32;;;;;;;78.87;23.90;;;2.10;99.90;;;;;;5188053;28;20638;-69
2020/12/19 08:05:13;;;;;;;72.37;23.23;;;2.10;99.90;;;;;;5187621;28;20341;-71
2020/12/19 08:07:51;;;;;;;68.20;22.53;;;2.10;99.90;;;;;;5188997;28;20195;-70
2020/12/19 08:10:22;;;;;;;64.10;22.50;;;2.10;99.90;;;;;;5189044;28;20297;-69
2020/12/19 08:12:53;;;;;;;80.27;24.67;;;2.20;99.90;;;;;;5188828;28;20203;-71
2020/12/19 08:19:29;;;;;;;72.00;23.33;;;2.20;99.90;;;;;;5189439;28;20175;-70
2020/12/19 08:22:04;;;;;;;78.87;24.23;;;2.20;99.90;;;;;;5190698;28;20187;-70
2020/12/19 08:24:36;;;;;;;86.00;27.57;;;2.20;99.90;;;;;;5190941;28;20194;-72
2020/12/19 08:27:32;;;;;;;74.93;26.20;;;2.30;99.90;;;;;;5189069;28;20210;-70
2020/12/19 08:30:12;;;;;;;72.10;27.00;;;2.30;99.90;;;;;;5187236;28;20210;-70
2020/12/19 08:32:48;;;;;;;80.10;27.03;;;2.30;99.90;;;;;;5187125;28;20202;-70
2020/12/19 08:35:33;;;;;;;81.23;27.60;;;2.40;99.90;;;;;;5186952;28;20226;-70
2020/12/19 08:38:08;;;;;;;71.00;24.83;;;2.40;99.90;;;;;;5187468;28;20194;-72
2020/12/19 08:40:51;;;;;;;84.77;26.93;;;2.40;99.90;;;;;;5187103;28;20191;-73
2020/12/19 08:43:33;;;;;;;75.57;25.77;;;2.40;99.90;;;;;;5187499;28;20645;-70
2020/12/19 08:46:09;;;;;;;83.97;26.33;;;2.50;99.90;;;;;;5171179;28;20657;-71
2020/12/19 08:48:42;;;;;;;82.83;26.80;;;2.50;99.90;;;;;;5188199;28;20190;-70
2020/12/19 08:51:19;;;;;;;69.83;24.90;;;2.50;99.90;;;;;;5187467;28;20206;-72
2020/12/19 08:53:50;;;;;;;69.50;24.83;;;2.60;99.90;;;;;;5187250;28;20575;-72
2020/12/19 08:56:27;;;;;;;73.77;25.27;;;2.60;99.90;;;;;;5188374;28;20373;-72
2020/12/19 08:58:59;;;;;;;67.70;24.80;;;2.50;99.90;;;;;;5188154;28;20221;-72
2020/12/19 09:01:31;;;;;;;70.00;25.70;;;2.60;99.90;;;;;;5186845;28;20198;-70
2020/12/19 09:04:09;;;;;;;68.87;24.90;;;2.60;99.90;;;;;;5186606;28;20230;-72
2020/12/19 09:06:53;;;;;;;70.77;25.90;;;2.60;99.90;;;;;;5169131;28;20202;-70
2020/12/19 09:09:29;;;;;;;60.30;24.23;;;2.60;99.90;;;;;;5187342;28;20210;-71
2020/12/19 09:12:12;;;;;;;63.87;24.83;;;2.60;99.90;;;;;;5187458;28;20554;-71
2020/12/19 09:14:43;;;;;;;61.83;23.97;;;2.60;99.90;;;;;;5193275;28;20229;-70
2020/12/19 09:17:29;;;;;;;63.73;24.80;;;2.70;99.90;;;;;;5193601;28;20214;-71
2020/12/19 09:20:04;;;;;;;66.13;24.90;;;2.70;99.90;;;;;;5193320;28;20190;-70
2020/12/19 09:22:36;;;;;;;66.83;25.57;;;2.70;99.90;;;;;;5193111;28;20190;-71
2020/12/19 09:25:07;;;;;;;67.67;25.47;;;2.80;99.90;;;;;;5193463;28;20195;-72
2020/12/19 09:27:39;;;;;;;66.13;25.60;;;2.80;99.90;;;;;;5193465;28;20561;-70
2020/12/19 09:34:06;;;;;;;59.17;23.90;;;2.90;99.90;;;;;;5193331;28;20228;-73
2020/12/19 09:36:38;;;;;;;61.80;24.67;;;2.90;99.90;;;;;;5193179;28;20227;-71
2020/12/19 09:39:09;;;;;;;62.60;23.73;;;2.90;99.90;;;;;;5193336;28;20567;-68
2020/12/19 09:41:41;;;;;;;60.47;23.37;;;2.90;99.90;;;;;;5193180;28;20556;-71
2020/12/19 09:44:12;;;;;;;59.10;24.80;;;2.90;99.90;;;;;;5193560;28;20724;-71
2020/12/19 09:50:39;;;;;;;56.00;23.97;;;3.00;99.90;;;;;;5193907;28;20174;-69
2020/12/19 09:53:11;;;;;;;57.60;25.20;;;3.00;99.90;;;;;;5176646;28;20624;-70
2020/12/19 09:55:42;;;;;;;65.40;26.30;;;3.00;99.90;;;;;;5193333;28;20203;-69
2020/12/19 09:58:15;;;;;;;65.10;26.83;;;3.00;99.90;;;;;;5192647;28;20191;-70
2020/12/19 10:00:46;;;;;;;58.13;25.60;;;3.10;99.90;;;;;;5193073;28;20634;-70
2020/12/19 10:03:18;;;;;;;56.93;25.27;;;3.00;99.90;;;;;;5192898;28;20238;-70
2020/12/19 10:05:50;;;;;;;62.20;26.30;;;3.00;99.90;;;;;;5192859;28;20197;-71
2020/12/19 10:08:23;;;;;;;55.60;24.60;;;2.90;99.90;;;;;;5192946;28;20577;-70
2020/12/19 10:10:55;;;;;;;54.77;24.90;;;2.90;99.90;;;;;;5176050;28;20246;-71
2020/12/19 10:13:26;;;;;;;60.63;24.60;;;3.00;99.90;;;;;;5192906;28;20548;-70
2020/12/19 10:15:58;;;;;;;60.43;24.47;;;3.00;99.90;;;;;;5193150;28;20559;-72
2020/12/19 10:18:29;;;;;;;54.77;24.20;;;3.00;99.90;;;;;;5193492;28;20278;-69
2020/12/19 10:21:00;;;;;;;62.07;24.90;;;3.00;99.90;;;;;;5192824;28;20202;-70
2020/12/19 10:23:34;;;;;;;55.60;24.60;;;3.10;99.90;;;;;;5192727;28;20205;-73
2020/12/19 10:26:09;;;;;;;53.50;24.17;;;3.00;99.90;;;;;;5188163;28;20191;-70
2020/12/19 10:28:41;;;;;;;58.13;24.77;;;3.00;99.90;;;;;;5185857;28;20199;-70
2020/12/19 10:31:13;;;;;;;53.23;24.37;;;3.10;99.90;;;;;;5183573;28;20199;-73
2020/12/19 10:33:45;;;;;;;60.63;26.10;;;3.00;99.90;;;;;;5167926;28;20689;-71
2020/12/19 10:36:17;;;;;;;59.97;26.27;;;3.10;99.90;;;;;;5189515;28;20202;-71
2020/12/19 10:38:48;;;;;;;53.13;25.50;;;3.10;99.90;;;;;;5172883;28;20187;-74
2020/12/19 10:41:20;;;;;;;60.03;25.90;;;3.10;99.90;;;;;;5185811;28;20203;-70
2020/12/19 10:43:55;;;;;;;62.10;26.87;;;3.10;99.90;;;;;;5188606;28;20241;-72
2020/12/19 10:46:28;;;;;;;64.40;27.77;;;3.10;99.90;;;;;;5189731;28;20207;-73
2020/12/19 10:48:59;;;;;;;64.27;26.70;;;3.20;99.90;;;;;;5189934;28;20195;-72
2020/12/19 10:51:34;;;;;;;65.33;27.53;;;3.10;99.90;;;;;;5189812;28;20195;-73
2020/12/19 10:54:05;;;;;;;60.03;26.20;;;3.10;99.90;;;;;;5189937;28;20229;-73
2020/12/19 10:56:36;;;;;;;61.73;26.90;;;3.10;99.90;;;;;;5189887;28;20214;-74
2020/12/19 10:59:08;;;;;;;58.30;26.47;;;3.20;99.90;;;;;;5190239;28;20562;-73
2020/12/19 11:01:39;;;;;;;61.00;26.33;;;3.20;99.90;;;;;;5189101;28;20187;-73
2020/12/19 11:04:11;;;;;;;61.63;25.80;;;3.20;99.90;;;;;;5188967;28;20249;-73
2020/12/19 11:06:42;;;;;;;66.47;28.50;;;3.20;99.90;;;;;;5173491;28;20454;-74
2020/12/19 11:09:14;;;;;;;59.77;25.53;;;3.20;99.90;;;;;;5191380;28;20202;-73
2020/12/19 11:11:50;;;;;;;62.33;27.30;;;3.20;99.90;;;;;;5173666;28;20196;-73
2020/12/19 11:14:23;;;;;;;57.93;26.30;;;3.20;99.90;;;;;;5175155;28;20218;-75
2020/12/19 11:16:57;;;;;;;54.63;25.00;;;3.20;99.90;;;;;;5192570;28;20539;-74
2020/12/19 11:19:44;;;;;;;66.73;27.27;;;3.10;99.90;;;;;;5191245;28;20191;-72
2020/12/19 11:22:16;;;;;;;62.27;25.93;;;3.00;99.90;;;;;;5191366;28;20282;-75
2020/12/19 11:24:48;;;;;;;60.70;26.00;;;3.00;99.90;;;;;;5176623;28;20203;-76
2020/12/19 11:27:19;;;;;;;62.57;26.40;;;3.00;99.90;;;;;;5187388;28;20198;-72
2020/12/19 11:29:51;;;;;;;63.80;27.50;;;3.00;99.90;;;;;;5154906;28;20191;-72
2020/12/19 11:32:23;;;;;;;63.10;27.57;;;2.90;99.90;;;;;;5188312;28;20575;-71
2020/12/19 11:34:54;;;;;;;71.43;29.07;;;3.00;99.90;;;;;;5189203;28;20226;-69
2020/12/19 11:37:26;;;;;;;66.00;27.97;;;3.00;99.90;;;;;;5187842;28;20195;-71
2020/12/19 11:39:58;;;;;;;70.60;28.30;;;3.00;99.90;;;;;;5188307;28;20195;-71
2020/12/19 11:42:29;;;;;;;64.27;27.73;;;3.00;99.90;;;;;;5188491;28;20195;-70
2020/12/19 11:45:01;;;;;;;62.53;28.57;;;3.00;99.90;;;;;;5188437;28;20194;-68
2020/12/19 11:47:32;;;;;;;68.07;29.53;;;2.90;99.90;;;;;;5188706;28;20609;-72
2020/12/19 11:50:05;;;;;;;69.23;30.10;;;3.00;99.90;;;;;;5187881;28;20199;-74
2020/12/19 11:52:36;;;;;;;69.17;29.70;;;3.00;99.90;;;;;;5188113;28;20191;-69
2020/12/19 11:55:08;;;;;;;67.80;29.30;;;3.00;99.90;;;;;;5187893;28;20225;-69
2020/12/19 11:57:48;;;;;;;66.83;28.43;;;3.00;99.90;;;;;;5187540;28;20658;-72
2020/12/19 12:00:22;;;;;;;74.20;31.00;;;3.00;99.90;;;;;;5187934;28;20201;-77
2020/12/19 12:02:54;;;;;;;74.23;31.40;;;3.00;99.90;;;;;;5187436;28;20202;-72
2020/12/19 12:05:25;;;;;;;74.07;30.13;;;3.00;99.90;;;;;;5187765;28;20580;-71
2020/12/19 12:07:57;;;;;;;79.73;31.73;;;3.00;99.90;;;;;;5170131;28;20199;-73
2020/12/19 12:10:28;;;;;;;79.20;33.77;;;2.90;99.90;;;;;;5189400;28;20191;-72
2020/12/19 12:13:00;;;;;;;80.87;33.13;;;3.00;99.90;;;;;;5190084;28;20191;-75
2020/12/19 12:15:31;;;;;;;77.50;32.93;;;2.90;99.90;;;;;;5188898;28;20219;-73
2020/12/19 12:18:03;;;;;;;74.87;31.90;;;2.90;99.90;;;;;;5188518;28;20191;-70
2020/12/19 12:20:34;;;;;;;84.83;33.37;;;2.90;99.90;;;;;;5187413;28;20210;-69
2020/12/19 12:23:06;;;;;;;71.90;31.03;;;2.80;99.90;;;;;;5189391;28;20515;-72
2020/12/19 12:25:39;;;;;;;77.17;32.07;;;2.80;99.90;;;;;;5187469;28;20567;-70
2020/12/19 12:28:10;;;;;;;82.83;33.10;;;2.80;99.90;;;;;;5187539;28;20548;-69
2020/12/19 12:30:42;;;;;;;76.67;31.30;;;2.70;99.90;;;;;;5187301;28;20225;-69
2020/12/19 12:33:13;;;;;;;69.03;29.73;;;2.70;99.90;;;;;;5187143;28;20191;-72
2020/12/19 12:35:45;;;;;;;77.90;30.37;;;2.70;99.90;;;;;;5187238;28;20581;-71
2020/12/19 12:38:20;;;;;;;76.03;31.37;;;2.60;99.90;;;;;;5187190;28;20325;-70
2020/12/19 12:40:51;;;;;;;78.37;34.37;;;2.60;99.90;;;;;;5169504;28;20199;-71
2020/12/19 12:43:23;;;;;;;90.13;35.30;;;2.70;99.90;;;;;;5186902;28;20286;-69
2020/12/19 12:45:56;;;;;;;87.80;34.90;;;2.70;99.90;;;;;;5187210;28;20529;-70
2020/12/19 12:48:28;;;;;;;83.77;35.27;;;2.60;99.90;;;;;;5186347;28;20625;-70
2020/12/19 12:51:00;;;;;;;86.17;35.60;;;2.70;99.90;;;;;;5169331;28;20199;-70
2020/12/19 12:53:32;;;;;;;84.80;35.33;;;2.70;99.90;;;;;;5186602;28;20195;-69
2020/12/19 12:56:04;;;;;;;84.93;35.33;;;2.70;99.90;;;;;;5186639;28;20195;-69
2020/12/19 12:58:36;;;;;;;83.53;35.03;;;2.70;99.90;;;;;;5186518;28;20210;-69
2020/12/19 13:01:08;;;;;;;93.43;36.47;;;2.70;99.90;;;;;;5186453;28;20202;-67
2020/12/19 13:03:40;;;;;;;93.43;36.93;;;2.70;99.90;;;;;;5184107;28;20226;-68
2020/12/19 13:06:12;;;;;;;97.63;38.43;;;2.60;99.90;;;;;;5187158;28;20199;-68
2020/12/19 13:08:46;;;;;;;91.60;37.77;;;2.60;99.90;;;;;;5188638;28;20613;-69
2020/12/19 13:11:20;;;;;;;86.80;36.37;;;2.60;99.90;;;;;;5186508;28;20198;-69
2020/12/19 13:13:52;;;;;;;95.40;38.70;;;2.60;99.90;;;;;;5169353;28;20579;-70
2020/12/19 13:16:23;;;;;;;91.47;37.43;;;2.60;99.90;;;;;;5169164;28;20226;-73
2020/12/19 13:19:15;;;;;;;98.28;45.58;;;2.50;99.90;;;;;;5151344;28;20794;-72
2020/12/19 13:21:47;;;;;;;86.73;37.63;;;2.50;99.90;;;;;;5165205;28;20221;-74
2020/12/19 13:24:23;;;;;;;88.73;36.23;;;2.50;99.90;;;;;;5165377;28;20242;-72
2020/12/19 13:26:55;;;;;;;84.70;35.40;;;2.40;99.90;;;;;;5165895;28;20555;-72
2020/12/19 13:29:27;;;;;;;81.80;36.23;;;2.40;99.90;;;;;;5164411;28;20194;-72
2020/12/19 13:35:54;;;;;;;80.10;34.30;;;2.30;99.90;;;;;;5164930;28;20305;-70
2020/12/19 13:38:28;;;;;;;80.93;34.03;;;2.20;99.90;;;;;;5183196;28;20202;-71
2020/12/19 13:41:02;;;;;;;84.63;34.70;;;2.20;99.90;;;;;;5186212;28;20209;-69